Grand Pass, Missouri
Current Conditions -  °F | °C
As of 4:58 PM on Friday 31 Oct 2014 (Local Time) from KSZL Reporting Station
Clear Clear  
Wind Chill: 38°   Ceiling: Unl
Heat Index: 44°   Visibility: 8mi
Dew Point: 16°   Wind: 14mph
Humidity: 32%   Direction: 330°NNW
Pressure: 30.41"   Gusts: NA
Location:  39.2052°N, 93.3822°W
Report Text: KSZL 312158Z AUTO 33012KT 8SM CLR 07/M09 A3041 RMK AO2 SLP304 T00681088 $
Loading
Personal Weather Stations






























Interactive Weather Map
Tropical Storm Tracking
New forecast layout! Learn more

10-Day Weather Forecast

Advertisements
Track Severe Weather on mobile